sensor_id;sensor_type;location;lat;lon;timestamp;P1;durP1;ratioP1;P2;durP2;ratioP2
39050;SDS011;24805;55.852;37.644;2024-02-21T00:02:12;19.35;;;11.77;;
39050;SDS011;24805;55.852;37.644;2024-02-21T00:07:14;18.55;;;10.95;;
39050;SDS011;24805;55.852;37.644;2024-02-21T00:12:16;21.02;;;12.07;;
39050;SDS011;24805;55.852;37.644;2024-02-21T00:17:19;19.30;;;11.38;;
39050;SDS011;24805;55.852;37.644;2024-02-21T00:22:21;15.65;;;8.70;;
39050;SDS011;24805;55.852;37.644;2024-02-21T00:27:23;17.67;;;10.90;;
39050;SDS011;24805;55.852;37.644;2024-02-21T00:32:25;23.00;;;12.57;;
39050;SDS011;24805;55.852;37.644;2024-02-21T00:37:28;18.60;;;11.40;;
39050;SDS011;24805;55.852;37.644;2024-02-21T00:42:30;17.95;;;10.68;;
39050;SDS011;24805;55.852;37.644;2024-02-21T00:47:33;22.52;;;11.65;;
39050;SDS011;24805;55.852;37.644;2024-02-21T00:52:35;24.25;;;12.05;;
39050;SDS011;24805;55.852;37.644;2024-02-21T00:57:37;25.10;;;12.77;;
39050;SDS011;24805;55.852;37.644;2024-02-21T01:02:39;23.50;;;11.20;;
39050;SDS011;24805;55.852;37.644;2024-02-21T01:07:42;20.60;;;10.35;;
39050;SDS011;24805;55.852;37.644;2024-02-21T01:12:44;20.02;;;11.63;;
39050;SDS011;24805;55.852;37.644;2024-02-21T01:17:47;22.90;;;11.35;;
39050;SDS011;24805;55.852;37.644;2024-02-21T01:22:49;21.98;;;12.35;;
39050;SDS011;24805;55.852;37.644;2024-02-21T01:27:51;18.08;;;11.35;;
39050;SDS011;24805;55.852;37.644;2024-02-21T01:32:54;13.63;;;8.77;;
39050;SDS011;24805;55.852;37.644;2024-02-21T01:37:56;17.55;;;10.45;;
39050;SDS011;24805;55.852;37.644;2024-02-21T01:42:59;19.67;;;10.18;;
39050;SDS011;24805;55.852;37.644;2024-02-21T01:48:01;18.40;;;11.02;;
39050;SDS011;24805;55.852;37.644;2024-02-21T01:53:04;19.92;;;11.32;;
39050;SDS011;24805;55.852;37.644;2024-02-21T01:58:07;16.20;;;9.85;;
39050;SDS011;24805;55.852;37.644;2024-02-21T02:03:12;17.75;;;10.70;;
39050;SDS011;24805;55.852;37.644;2024-02-21T02:08:19;17.38;;;10.20;;
39050;SDS011;24805;55.852;37.644;2024-02-21T02:13:24;19.42;;;10.95;;
39050;SDS011;24805;55.852;37.644;2024-02-21T02:18:26;19.88;;;10.27;;
39050;SDS011;24805;55.852;37.644;2024-02-21T02:23:29;20.27;;;9.85;;
39050;SDS011;24805;55.852;37.644;2024-02-21T02:28:33;18.88;;;10.70;;
39050;SDS011;24805;55.852;37.644;2024-02-21T02:33:35;15.32;;;8.40;;
39050;SDS011;24805;55.852;37.644;2024-02-21T02:38:38;17.25;;;8.32;;
39050;SDS011;24805;55.852;37.644;2024-02-21T02:43:40;20.02;;;10.65;;
39050;SDS011;24805;55.852;37.644;2024-02-21T02:48:42;15.00;;;8.77;;
39050;SDS011;24805;55.852;37.644;2024-02-21T02:53:45;15.75;;;8.68;;
39050;SDS011;24805;55.852;37.644;2024-02-21T02:58:47;15.95;;;9.43;;
39050;SDS011;24805;55.852;37.644;2024-02-21T03:03:49;11.25;;;6.25;;
39050;SDS011;24805;55.852;37.644;2024-02-21T03:08:52;16.08;;;9.32;;
39050;SDS011;24805;55.852;37.644;2024-02-21T03:13:56;19.02;;;11.18;;
39050;SDS011;24805;55.852;37.644;2024-02-21T03:18:59;17.05;;;11.05;;
39050;SDS011;24805;55.852;37.644;2024-02-21T03:24:01;15.88;;;8.45;;
39050;SDS011;24805;55.852;37.644;2024-02-21T03:29:03;19.63;;;10.50;;
39050;SDS011;24805;55.852;37.644;2024-02-21T03:34:05;18.33;;;10.27;;
39050;SDS011;24805;55.852;37.644;2024-02-21T03:39:08;17.42;;;9.82;;
39050;SDS011;24805;55.852;37.644;2024-02-21T03:44:11;20.02;;;10.60;;
39050;SDS011;24805;55.852;37.644;2024-02-21T03:49:13;25.83;;;11.43;;
39050;SDS011;24805;55.852;37.644;2024-02-21T03:54:15;17.38;;;10.07;;
39050;SDS011;24805;55.852;37.644;2024-02-21T03:59:17;19.02;;;10.77;;
39050;SDS011;24805;55.852;37.644;2024-02-21T04:04:20;16.45;;;10.23;;
39050;SDS011;24805;55.852;37.644;2024-02-21T04:09:22;17.88;;;11.23;;
39050;SDS011;24805;55.852;37.644;2024-02-21T04:14:25;13.43;;;7.95;;
39050;SDS011;24805;55.852;37.644;2024-02-21T04:19:27;15.90;;;9.43;;
39050;SDS011;24805;55.852;37.644;2024-02-21T04:24:29;17.23;;;11.13;;
39050;SDS011;24805;55.852;37.644;2024-02-21T04:29:32;17.42;;;10.68;;
39050;SDS011;24805;55.852;37.644;2024-02-21T04:34:35;18.17;;;10.45;;
39050;SDS011;24805;55.852;37.644;2024-02-21T04:39:37;16.48;;;9.32;;
39050;SDS011;24805;55.852;37.644;2024-02-21T04:44:40;14.57;;;8.60;;
39050;SDS011;24805;55.852;37.644;2024-02-21T04:49:42;18.75;;;10.60;;
39050;SDS011;24805;55.852;37.644;2024-02-21T04:54:44;15.43;;;9.68;;
39050;SDS011;24805;55.852;37.644;2024-02-21T04:59:47;17.80;;;11.13;;
39050;SDS011;24805;55.852;37.644;2024-02-21T05:04:49;16.70;;;9.50;;
39050;SDS011;24805;55.852;37.644;2024-02-21T05:09:52;19.25;;;10.38;;
39050;SDS011;24805;55.852;37.644;2024-02-21T05:14:55;15.82;;;10.10;;
39050;SDS011;24805;55.852;37.644;2024-02-21T05:19:57;16.80;;;10.15;;
39050;SDS011;24805;55.852;37.644;2024-02-21T05:25:00;16.17;;;10.50;;
39050;SDS011;24805;55.852;37.644;2024-02-21T05:30:03;14.93;;;9.70;;
39050;SDS011;24805;55.852;37.644;2024-02-21T05:35:05;17.05;;;10.20;;
39050;SDS011;24805;55.852;37.644;2024-02-21T05:40:08;15.15;;;10.10;;
39050;SDS011;24805;55.852;37.644;2024-02-21T05:45:14;19.38;;;11.63;;
39050;SDS011;24805;55.852;37.644;2024-02-21T05:50:17;16.65;;;10.35;;
39050;SDS011;24805;55.852;37.644;2024-02-21T05:55:19;17.83;;;9.90;;
39050;SDS011;24805;55.852;37.644;2024-02-21T06:00:22;18.23;;;10.77;;
39050;SDS011;24805;55.852;37.644;2024-02-21T06:05:24;13.93;;;8.38;;
39050;SDS011;24805;55.852;37.644;2024-02-21T06:10:27;17.17;;;9.48;;
39050;SDS011;24805;55.852;37.644;2024-02-21T06:15:29;19.73;;;9.90;;
39050;SDS011;24805;55.852;37.644;2024-02-21T06:20:31;16.00;;;10.07;;
39050;SDS011;24805;55.852;37.644;2024-02-21T06:25:33;19.15;;;9.95;;
39050;SDS011;24805;55.852;37.644;2024-02-21T06:30:36;14.32;;;8.95;;
39050;SDS011;24805;55.852;37.644;2024-02-21T06:35:38;17.50;;;10.40;;
39050;SDS011;24805;55.852;37.644;2024-02-21T06:40:43;11.90;;;6.88;;
39050;SDS011;24805;55.852;37.644;2024-02-21T06:45:50;18.15;;;10.68;;
39050;SDS011;24805;55.852;37.644;2024-02-21T06:50:53;17.20;;;10.88;;
39050;SDS011;24805;55.852;37.644;2024-02-21T06:55:55;20.77;;;11.38;;
39050;SDS011;24805;55.852;37.644;2024-02-21T07:00:57;16.42;;;10.07;;
39050;SDS011;24805;55.852;37.644;2024-02-21T07:06:00;12.70;;;7.05;;
39050;SDS011;24805;55.852;37.644;2024-02-21T07:11:03;14.25;;;6.82;;
39050;SDS011;24805;55.852;37.644;2024-02-21T07:16:06;18.55;;;10.63;;
39050;SDS011;24805;55.852;37.644;2024-02-21T07:21:09;21.45;;;11.48;;
39050;SDS011;24805;55.852;37.644;2024-02-21T07:26:11;19.05;;;10.60;;
39050;SDS011;24805;55.852;37.644;2024-02-21T07:31:13;16.98;;;10.80;;
39050;SDS011;24805;55.852;37.644;2024-02-21T07:36:16;20.92;;;11.88;;
39050;SDS011;24805;55.852;37.644;2024-02-21T07:41:31;21.48;;;11.77;;
39050;SDS011;24805;55.852;37.644;2024-02-21T07:46:35;18.50;;;11.10;;
39050;SDS011;24805;55.852;37.644;2024-02-21T07:51:37;20.42;;;11.82;;
39050;SDS011;24805;55.852;37.644;2024-02-21T07:56:40;21.08;;;11.70;;
39050;SDS011;24805;55.852;37.644;2024-02-21T08:01:42;21.80;;;11.88;;
39050;SDS011;24805;55.852;37.644;2024-02-21T08:06:50;14.25;;;8.18;;
39050;SDS011;24805;55.852;37.644;2024-02-21T08:11:55;18.13;;;11.38;;
39050;SDS011;24805;55.852;37.644;2024-02-21T08:16:57;18.45;;;11.43;;
39050;SDS011;24805;55.852;37.644;2024-02-21T08:22:01;16.58;;;10.90;;
39050;SDS011;24805;55.852;37.644;2024-02-21T08:27:05;17.77;;;12.30;;
39050;SDS011;24805;55.852;37.644;2024-02-21T08:32:25;16.98;;;12.00;;
39050;SDS011;24805;55.852;37.644;2024-02-21T08:37:28;15.05;;;11.27;;
39050;SDS011;24805;55.852;37.644;2024-02-21T08:42:30;16.50;;;10.35;;
39050;SDS011;24805;55.852;37.644;2024-02-21T08:47:35;15.07;;;10.40;;
39050;SDS011;24805;55.852;37.644;2024-02-21T08:52:38;17.08;;;10.98;;
39050;SDS011;24805;55.852;37.644;2024-02-21T08:57:40;15.10;;;11.48;;
39050;SDS011;24805;55.852;37.644;2024-02-21T09:02:42;14.63;;;10.35;;
39050;SDS011;24805;55.852;37.644;2024-02-21T09:07:45;19.85;;;11.13;;
39050;SDS011;24805;55.852;37.644;2024-02-21T09:12:47;18.90;;;11.82;;
39050;SDS011;24805;55.852;37.644;2024-02-21T09:17:50;16.92;;;11.50;;
39050;SDS011;24805;55.852;37.644;2024-02-21T09:22:52;17.25;;;11.15;;
39050;SDS011;24805;55.852;37.644;2024-02-21T09:27:54;17.83;;;11.60;;
39050;SDS011;24805;55.852;37.644;2024-02-21T09:32:57;19.02;;;12.35;;
39050;SDS011;24805;55.852;37.644;2024-02-21T09:38:01;16.27;;;11.52;;
39050;SDS011;24805;55.852;37.644;2024-02-21T09:43:04;17.20;;;10.32;;
39050;SDS011;24805;55.852;37.644;2024-02-21T09:48:26;14.05;;;8.57;;
39050;SDS011;24805;55.852;37.644;2024-02-21T09:53:54;16.50;;;10.90;;
39050;SDS011;24805;55.852;37.644;2024-02-21T09:59:15;13.38;;;7.88;;
39050;SDS011;24805;55.852;37.644;2024-02-21T10:04:19;15.07;;;7.03;;
39050;SDS011;24805;55.852;37.644;2024-02-21T10:09:23;19.70;;;10.90;;
39050;SDS011;24805;55.852;37.644;2024-02-21T10:14:26;15.90;;;9.48;;
39050;SDS011;24805;55.852;37.644;2024-02-21T10:19:28;15.65;;;9.25;;
39050;SDS011;24805;55.852;37.644;2024-02-21T10:24:31;16.23;;;11.02;;
39050;SDS011;24805;55.852;37.644;2024-02-21T10:29:37;12.27;;;7.15;;
39050;SDS011;24805;55.852;37.644;2024-02-21T10:34:41;15.23;;;10.75;;
39050;SDS011;24805;55.852;37.644;2024-02-21T10:39:45;11.57;;;7.35;;
39050;SDS011;24805;55.852;37.644;2024-02-21T10:44:47;13.73;;;8.55;;
39050;SDS011;24805;55.852;37.644;2024-02-21T10:49:57;16.02;;;9.15;;
39050;SDS011;24805;55.852;37.644;2024-02-21T10:55:08;12.25;;;8.63;;
39050;SDS011;24805;55.852;37.644;2024-02-21T11:00:18;13.57;;;8.60;;
39050;SDS011;24805;55.852;37.644;2024-02-21T11:05:21;15.63;;;8.80;;
39050;SDS011;24805;55.852;37.644;2024-02-21T11:10:24;11.23;;;6.47;;
39050;SDS011;24805;55.852;37.644;2024-02-21T11:15:27;14.30;;;7.75;;
39050;SDS011;24805;55.852;37.644;2024-02-21T11:20:33;15.18;;;8.55;;
39050;SDS011;24805;55.852;37.644;2024-02-21T11:25:37;16.35;;;8.52;;
39050;SDS011;24805;55.852;37.644;2024-02-21T11:30:39;15.38;;;6.45;;
39050;SDS011;24805;55.852;37.644;2024-02-21T11:35:42;13.80;;;8.32;;
39050;SDS011;24805;55.852;37.644;2024-02-21T11:40:46;13.10;;;7.93;;
39050;SDS011;24805;55.852;37.644;2024-02-21T11:45:49;11.55;;;6.40;;
39050;SDS011;24805;55.852;37.644;2024-02-21T11:50:55;14.38;;;8.65;;
39050;SDS011;24805;55.852;37.644;2024-02-21T11:55:58;12.65;;;8.07;;
39050;SDS011;24805;55.852;37.644;2024-02-21T12:01:01;11.68;;;6.40;;
39050;SDS011;24805;55.852;37.644;2024-02-21T12:06:06;13.82;;;7.88;;
39050;SDS011;24805;55.852;37.644;2024-02-21T12:11:24;15.57;;;8.20;;
39050;SDS011;24805;55.852;37.644;2024-02-21T12:16:27;11.80;;;6.90;;
39050;SDS011;24805;55.852;37.644;2024-02-21T12:21:32;15.48;;;8.27;;
39050;SDS011;24805;55.852;37.644;2024-02-21T12:26:38;13.55;;;7.85;;
39050;SDS011;24805;55.852;37.644;2024-02-21T12:31:41;15.18;;;8.70;;
39050;SDS011;24805;55.852;37.644;2024-02-21T12:36:46;17.33;;;9.23;;
39050;SDS011;24805;55.852;37.644;2024-02-21T12:41:49;15.38;;;8.93;;
39050;SDS011;24805;55.852;37.644;2024-02-21T12:46:51;15.10;;;8.50;;
39050;SDS011;24805;55.852;37.644;2024-02-21T12:51:56;11.77;;;7.60;;
39050;SDS011;24805;55.852;37.644;2024-02-21T12:56:59;13.00;;;8.40;;
39050;SDS011;24805;55.852;37.644;2024-02-21T13:02:05;15.52;;;8.23;;
39050;SDS011;24805;55.852;37.644;2024-02-21T13:07:08;13.38;;;8.35;;
39050;SDS011;24805;55.852;37.644;2024-02-21T13:12:10;12.68;;;7.18;;
39050;SDS011;24805;55.852;37.644;2024-02-21T13:17:14;15.73;;;8.40;;
39050;SDS011;24805;55.852;37.644;2024-02-21T13:22:18;14.75;;;7.47;;
39050;SDS011;24805;55.852;37.644;2024-02-21T13:27:24;16.25;;;9.40;;
39050;SDS011;24805;55.852;37.644;2024-02-21T13:32:26;13.00;;;7.65;;
39050;SDS011;24805;55.852;37.644;2024-02-21T13:37:28;14.65;;;9.15;;
39050;SDS011;24805;55.852;37.644;2024-02-21T13:42:31;21.48;;;7.90;;
39050;SDS011;24805;55.852;37.644;2024-02-21T13:47:34;12.85;;;7.90;;
39050;SDS011;24805;55.852;37.644;2024-02-21T13:52:38;14.95;;;7.88;;
39050;SDS011;24805;55.852;37.644;2024-02-21T13:57:40;12.80;;;7.63;;
39050;SDS011;24805;55.852;37.644;2024-02-21T14:02:43;16.63;;;9.00;;
39050;SDS011;24805;55.852;37.644;2024-02-21T14:07:46;13.05;;;6.60;;
39050;SDS011;24805;55.852;37.644;2024-02-21T14:12:48;10.57;;;7.07;;
39050;SDS011;24805;55.852;37.644;2024-02-21T14:17:51;15.73;;;8.80;;
39050;SDS011;24805;55.852;37.644;2024-02-21T14:22:53;16.45;;;8.85;;
39050;SDS011;24805;55.852;37.644;2024-02-21T14:27:55;16.42;;;8.73;;
39050;SDS011;24805;55.852;37.644;2024-02-21T14:32:58;18.75;;;9.25;;
39050;SDS011;24805;55.852;37.644;2024-02-21T14:38:00;18.83;;;8.82;;
39050;SDS011;24805;55.852;37.644;2024-02-21T14:43:03;13.95;;;7.43;;
39050;SDS011;24805;55.852;37.644;2024-02-21T14:53:28;14.18;;;6.63;;
39050;SDS011;24805;55.852;37.644;2024-02-21T14:58:31;17.30;;;9.40;;
39050;SDS011;24805;55.852;37.644;2024-02-21T15:03:33;13.85;;;7.50;;
39050;SDS011;24805;55.852;37.644;2024-02-21T15:08:36;12.60;;;6.25;;
39050;SDS011;24805;55.852;37.644;2024-02-21T15:13:38;17.35;;;8.15;;
39050;SDS011;24805;55.852;37.644;2024-02-21T15:18:40;16.20;;;9.02;;
39050;SDS011;24805;55.852;37.644;2024-02-21T15:23:43;15.02;;;8.02;;
39050;SDS011;24805;55.852;37.644;2024-02-21T15:28:45;15.40;;;8.52;;
39050;SDS011;24805;55.852;37.644;2024-02-21T15:39:09;15.55;;;9.32;;
39050;SDS011;24805;55.852;37.644;2024-02-21T15:44:12;17.85;;;8.77;;
39050;SDS011;24805;55.852;37.644;2024-02-21T15:49:15;16.08;;;9.60;;
39050;SDS011;24805;55.852;37.644;2024-02-21T15:54:17;10.68;;;6.65;;
39050;SDS011;24805;55.852;37.644;2024-02-21T15:59:25;16.95;;;9.10;;
39050;SDS011;24805;55.852;37.644;2024-02-21T16:04:27;16.63;;;9.35;;
39050;SDS011;24805;55.852;37.644;2024-02-21T16:09:30;21.48;;;10.95;;
39050;SDS011;24805;55.852;37.644;2024-02-21T16:14:33;14.95;;;8.40;;
39050;SDS011;24805;55.852;37.644;2024-02-21T16:19:37;14.10;;;7.07;;
39050;SDS011;24805;55.852;37.644;2024-02-21T16:24:40;21.75;;;10.40;;
39050;SDS011;24805;55.852;37.644;2024-02-21T16:29:42;19.35;;;9.65;;
39050;SDS011;24805;55.852;37.644;2024-02-21T16:34:44;20.25;;;8.57;;
39050;SDS011;24805;55.852;37.644;2024-02-21T16:39:47;19.50;;;11.15;;
39050;SDS011;24805;55.852;37.644;2024-02-21T16:44:49;15.95;;;7.43;;
39050;SDS011;24805;55.852;37.644;2024-02-21T16:49:52;14.48;;;7.93;;
39050;SDS011;24805;55.852;37.644;2024-02-21T16:54:55;16.77;;;8.55;;
39050;SDS011;24805;55.852;37.644;2024-02-21T16:59:58;20.42;;;10.25;;
39050;SDS011;24805;55.852;37.644;2024-02-21T17:05:02;19.77;;;10.73;;
39050;SDS011;24805;55.852;37.644;2024-02-21T17:10:05;22.60;;;11.30;;
39050;SDS011;24805;55.852;37.644;2024-02-21T17:15:07;19.10;;;9.80;;
39050;SDS011;24805;55.852;37.644;2024-02-21T17:20:10;27.50;;;11.57;;
39050;SDS011;24805;55.852;37.644;2024-02-21T17:25:13;22.13;;;11.50;;
39050;SDS011;24805;55.852;37.644;2024-02-21T17:30:15;17.67;;;10.40;;
39050;SDS011;24805;55.852;37.644;2024-02-21T17:35:18;21.23;;;11.68;;
39050;SDS011;24805;55.852;37.644;2024-02-21T17:40:20;19.63;;;10.52;;
39050;SDS011;24805;55.852;37.644;2024-02-21T17:45:23;21.77;;;11.50;;
39050;SDS011;24805;55.852;37.644;2024-02-21T17:50:25;25.90;;;11.43;;
39050;SDS011;24805;55.852;37.644;2024-02-21T17:55:29;22.48;;;10.10;;
39050;SDS011;24805;55.852;37.644;2024-02-21T18:00:31;21.95;;;12.43;;
39050;SDS011;24805;55.852;37.644;2024-02-21T18:05:34;22.05;;;11.90;;
39050;SDS011;24805;55.852;37.644;2024-02-21T18:10:36;20.02;;;8.88;;
39050;SDS011;24805;55.852;37.644;2024-02-21T18:15:40;16.15;;;9.07;;
39050;SDS011;24805;55.852;37.644;2024-02-21T18:20:42;21.52;;;11.35;;
39050;SDS011;24805;55.852;37.644;2024-02-21T18:25:44;18.95;;;8.65;;
39050;SDS011;24805;55.852;37.644;2024-02-21T18:30:50;15.93;;;8.40;;
39050;SDS011;24805;55.852;37.644;2024-02-21T18:35:53;20.40;;;12.20;;
39050;SDS011;24805;55.852;37.644;2024-02-21T18:40:56;20.13;;;11.10;;
39050;SDS011;24805;55.852;37.644;2024-02-21T18:45:58;18.70;;;11.05;;
39050;SDS011;24805;55.852;37.644;2024-02-21T18:51:00;19.75;;;11.35;;
39050;SDS011;24805;55.852;37.644;2024-02-21T18:56:03;22.92;;;11.18;;
39050;SDS011;24805;55.852;37.644;2024-02-21T19:01:10;21.92;;;10.65;;
39050;SDS011;24805;55.852;37.644;2024-02-21T19:06:12;22.30;;;13.05;;
39050;SDS011;24805;55.852;37.644;2024-02-21T19:11:16;22.48;;;12.40;;
39050;SDS011;24805;55.852;37.644;2024-02-21T19:16:19;22.00;;;13.02;;
39050;SDS011;24805;55.852;37.644;2024-02-21T19:21:21;23.38;;;12.90;;
39050;SDS011;24805;55.852;37.644;2024-02-21T19:26:23;22.70;;;12.85;;
39050;SDS011;24805;55.852;37.644;2024-02-21T19:31:26;22.40;;;11.27;;
39050;SDS011;24805;55.852;37.644;2024-02-21T19:36:29;23.63;;;13.35;;
39050;SDS011;24805;55.852;37.644;2024-02-21T19:41:31;24.38;;;12.50;;
39050;SDS011;24805;55.852;37.644;2024-02-21T19:46:34;23.60;;;13.60;;
39050;SDS011;24805;55.852;37.644;2024-02-21T19:51:39;24.90;;;14.55;;
39050;SDS011;24805;55.852;37.644;2024-02-21T19:56:42;24.50;;;13.07;;
39050;SDS011;24805;55.852;37.644;2024-02-21T20:01:44;26.63;;;13.10;;
39050;SDS011;24805;55.852;37.644;2024-02-21T20:06:46;26.23;;;13.65;;
39050;SDS011;24805;55.852;37.644;2024-02-21T20:11:49;28.58;;;13.52;;
39050;SDS011;24805;55.852;37.644;2024-02-21T20:16:52;17.85;;;9.07;;
39050;SDS011;24805;55.852;37.644;2024-02-21T20:21:54;23.85;;;12.35;;
39050;SDS011;24805;55.852;37.644;2024-02-21T20:26:57;23.67;;;11.35;;
39050;SDS011;24805;55.852;37.644;2024-02-21T20:31:59;20.73;;;11.60;;
39050;SDS011;24805;55.852;37.644;2024-02-21T20:37:02;24.83;;;12.80;;
39050;SDS011;24805;55.852;37.644;2024-02-21T20:42:08;30.95;;;15.27;;
39050;SDS011;24805;55.852;37.644;2024-02-21T20:47:29;25.23;;;11.35;;
39050;SDS011;24805;55.852;37.644;2024-02-21T20:52:32;23.83;;;12.40;;
39050;SDS011;24805;55.852;37.644;2024-02-21T20:57:34;27.00;;;14.40;;
39050;SDS011;24805;55.852;37.644;2024-02-21T21:02:39;26.25;;;13.95;;
39050;SDS011;24805;55.852;37.644;2024-02-21T21:07:41;27.42;;;13.65;;
39050;SDS011;24805;55.852;37.644;2024-02-21T21:12:44;31.75;;;16.80;;
39050;SDS011;24805;55.852;37.644;2024-02-21T21:17:49;27.92;;;15.68;;
39050;SDS011;24805;55.852;37.644;2024-02-21T21:22:52;30.05;;;14.00;;
39050;SDS011;24805;55.852;37.644;2024-02-21T21:27:54;27.05;;;14.77;;
39050;SDS011;24805;55.852;37.644;2024-02-21T21:32:57;31.85;;;16.05;;
39050;SDS011;24805;55.852;37.644;2024-02-21T21:38:02;29.15;;;15.98;;
39050;SDS011;24805;55.852;37.644;2024-02-21T21:43:07;26.15;;;15.25;;
39050;SDS011;24805;55.852;37.644;2024-02-21T21:48:11;30.30;;;16.05;;
39050;SDS011;24805;55.852;37.644;2024-02-21T21:53:14;21.17;;;12.27;;
39050;SDS011;24805;55.852;37.644;2024-02-21T21:58:16;27.48;;;14.55;;
39050;SDS011;24805;55.852;37.644;2024-02-21T22:03:19;27.77;;;15.23;;
39050;SDS011;24805;55.852;37.644;2024-02-21T22:08:21;29.02;;;16.60;;
39050;SDS011;24805;55.852;37.644;2024-02-21T22:13:24;29.90;;;15.45;;
39050;SDS011;24805;55.852;37.644;2024-02-21T22:18:26;28.27;;;15.52;;
39050;SDS011;24805;55.852;37.644;2024-02-21T22:23:28;31.10;;;16.60;;
39050;SDS011;24805;55.852;37.644;2024-02-21T22:28:31;30.88;;;16.20;;
39050;SDS011;24805;55.852;37.644;2024-02-21T22:33:34;33.92;;;17.27;;
39050;SDS011;24805;55.852;37.644;2024-02-21T22:38:37;33.38;;;17.98;;
39050;SDS011;24805;55.852;37.644;2024-02-21T22:43:39;30.63;;;16.35;;
39050;SDS011;24805;55.852;37.644;2024-02-21T22:48:41;33.97;;;16.67;;
39050;SDS011;24805;55.852;37.644;2024-02-21T22:53:44;27.15;;;13.85;;
39050;SDS011;24805;55.852;37.644;2024-02-21T22:58:46;31.20;;;14.05;;
39050;SDS011;24805;55.852;37.644;2024-02-21T23:03:48;29.88;;;16.33;;
39050;SDS011;24805;55.852;37.644;2024-02-21T23:08:51;30.45;;;16.80;;
39050;SDS011;24805;55.852;37.644;2024-02-21T23:13:55;30.30;;;16.17;;
39050;SDS011;24805;55.852;37.644;2024-02-21T23:18:58;30.60;;;16.67;;
39050;SDS011;24805;55.852;37.644;2024-02-21T23:24:01;32.75;;;17.50;;
39050;SDS011;24805;55.852;37.644;2024-02-21T23:29:03;30.77;;;16.92;;
39050;SDS011;24805;55.852;37.644;2024-02-21T23:34:06;32.22;;;17.83;;
39050;SDS011;24805;55.852;37.644;2024-02-21T23:39:08;33.65;;;17.80;;
39050;SDS011;24805;55.852;37.644;2024-02-21T23:44:10;28.30;;;16.30;;
39050;SDS011;24805;55.852;37.644;2024-02-21T23:49:13;31.45;;;16.25;;
39050;SDS011;24805;55.852;37.644;2024-02-21T23:54:16;30.77;;;15.80;;
39050;SDS011;24805;55.852;37.644;2024-02-21T23:59:19;32.40;;;17.80;;
